This is the latest recevied weather packets stored in our database for station/object JF2ZGN-13. If no packets are shown the sender has not sent any weather packets the latest 10 day(s).
| Time | Temp. | Humidity | Pressure | Rain* | Wind** | Luminosity | Snow |
|---|---|---|---|---|---|---|---|
| 1778085504 | 13.89° C | 52% | 909.3 hPa | 0 mm | - | - | - |
| 1778084903 | 13.89° C | 53% | 909.5 hPa | 0 mm | - | - | - |
| 1778084303 | 13.89° C | 54% | 909.7 hPa | 0 mm | - | - | - |
| 1778083702 | 13.89° C | 51% | 909.6 hPa | 0 mm | - | - | - |
| 1778083102 | 13.89° C | 51% | 909.8 hPa | 0 mm | - | - | - |
| 1778082502 | 13.89° C | 51% | 909.8 hPa | 0 mm | - | - | - |
| 1778081901 | 13.89° C | 51% | 910 hPa | 0 mm | - | - | - |
| 1778081300 | 13.89° C | 51% | 910.1 hPa | 0 mm | - | - | - |
| 1778080700 | 13.89° C | 51% | 910.1 hPa | 0 mm | - | - | - |
| 1778080100 | 13.33° C | 50% | 910.2 hPa | 0 mm | - | - | - |
| 1778079499 | 13.33° C | 50% | 910.4 hPa | 1.52 mm | - | - | - |
| 1778078901 | 13.33° C | 50% | 910.5 hPa | 1.52 mm | - | - | - |
| 1778078298 | 13.33° C | 51% | 910.7 hPa | 1.52 mm | - | - | - |
| 1778077698 | 13.33° C | 49% | 910.7 hPa | 1.52 mm | - | - | - |
| 1778077098 | 13.33° C | 49% | 910.7 hPa | 1.52 mm | - | - | - |
| 1778076497 | 13.33° C | 50% | 911 hPa | 1.27 mm | - | - | - |
| 1778075896 | 13.33° C | 50% | 910.6 hPa | 1.27 mm | - | - | - |
| 1778075296 | 12.78° C | 50% | 910.6 hPa | 1.27 mm | - | - | - |
| 1778074696 | 12.78° C | 49% | 910.7 hPa | 1.27 mm | - | - | - |
| 1778074095 | 12.78° C | 49% | 910.8 hPa | 1.27 mm | - | - | - |
| 1778073495 | 12.78° C | 49% | 910.8 hPa | 1.27 mm | - | - | - |
| 1778072894 | 12.78° C | 48% | 911 hPa | 1.27 mm | - | - | - |
| 1778072294 | 12.78° C | 43% | 910.8 hPa | 1.02 mm | - | - | - |
| 1778071693 | 12.22° C | 43% | 911 hPa | 1.02 mm | - | - | - |
| 1778071093 | 12.22° C | 43% | 911.1 hPa | 1.02 mm | - | - | - |
* Rain since midnight (hover to see other rain measurements)
** Current wind speed in m/s (hover to see current wind gust speed)